createdAt,value
2023-05-12T00:00:37.322Z,19.50
2023-05-12T00:04:40.276Z,18.50
2023-05-12T00:08:42.105Z,19.00
2023-05-12T00:12:44.332Z,18.00
2023-05-12T00:16:51.165Z,19.23
2023-05-12T00:20:54.299Z,19.35
2023-05-12T00:24:55.926Z,19.90
2023-05-12T00:28:57.558Z,19.33
2023-05-12T00:32:59.279Z,19.20
2023-05-12T00:37:00.981Z,20.95
2023-05-12T00:41:02.712Z,20.05
2023-05-12T00:45:05.041Z,20.30
2023-05-12T00:49:07.187Z,16.62
2023-05-12T00:53:09.636Z,16.70
2023-05-12T00:57:12.283Z,11.65
2023-05-12T01:01:14.031Z,13.27
2023-05-12T01:05:15.903Z,9.43
2023-05-12T01:09:17.865Z,6.60
2023-05-12T01:13:19.524Z,5.82
2023-05-12T01:17:28.105Z,6.05
2023-05-12T01:21:29.788Z,6.20
2023-05-12T01:25:33.110Z,5.78
2023-05-12T01:29:35.716Z,6.28
2023-05-12T01:33:37.842Z,6.07
2023-05-12T01:37:39.557Z,5.72
2023-05-12T01:41:41.230Z,5.95
2023-05-12T01:45:42.891Z,6.15
2023-05-12T01:49:45.487Z,6.28
2023-05-12T01:53:47.129Z,6.37
2023-05-12T01:57:48.797Z,5.85
2023-05-12T02:01:50.602Z,6.25
2023-05-12T02:05:52.313Z,4.68
2023-05-12T02:09:53.977Z,3.85
2023-05-12T02:13:56.183Z,3.72
2023-05-12T02:17:58.400Z,3.20
2023-05-12T02:22:00.286Z,3.30
2023-05-12T02:26:01.930Z,2.53
2023-05-12T02:30:04.420Z,3.28
2023-05-12T02:34:06.897Z,2.80
2023-05-12T02:38:08.562Z,3.05
2023-05-12T02:42:10.181Z,2.92
2023-05-12T02:46:12.343Z,3.10
2023-05-12T02:50:14.536Z,3.37
2023-05-12T02:54:16.250Z,2.90
2023-05-12T02:58:17.934Z,3.10
2023-05-12T03:02:19.687Z,3.37
2023-05-12T03:06:21.391Z,3.58
2023-05-12T03:10:23.341Z,3.75
2023-05-12T03:14:26.564Z,4.07
2023-05-12T03:18:31.434Z,5.32
2023-05-12T03:22:33.626Z,7.12
2023-05-12T03:26:35.868Z,8.68
2023-05-12T03:30:37.520Z,8.35
2023-05-12T03:34:39.185Z,8.65
2023-05-12T03:38:40.910Z,8.38
2023-05-12T03:42:42.531Z,9.38
2023-05-12T03:46:44.225Z,8.00
2023-05-12T03:50:45.965Z,7.22
2023-05-12T03:54:47.613Z,8.38
2023-05-12T03:58:49.439Z,8.55
2023-05-12T04:02:51.388Z,8.00
2023-05-12T04:06:53.219Z,7.65
2023-05-12T04:10:56.210Z,7.55
2023-05-12T04:14:57.926Z,6.07
2023-05-12T04:18:59.643Z,6.22
2023-05-12T04:23:01.299Z,6.03
2023-05-12T04:27:02.960Z,6.60
2023-05-12T04:31:04.713Z,6.55
2023-05-12T04:35:06.541Z,6.68
2023-05-12T04:39:09.420Z,6.75
2023-05-12T04:44:00.180Z,6.18
2023-05-12T04:47:32.939Z,5.32
2023-05-12T04:51:34.770Z,5.32
2023-05-12T04:55:36.580Z,4.57
2023-05-12T04:59:41.027Z,3.97
2023-05-12T05:03:43.190Z,4.00
2023-05-12T05:07:44.902Z,3.90
2023-05-12T05:11:47.496Z,3.67
2023-05-12T05:15:55.359Z,4.03
2023-05-12T05:19:59.658Z,3.30
2023-05-12T05:24:01.563Z,3.47
2023-05-12T05:28:03.391Z,3.30
2023-05-12T05:32:05.440Z,3.55
2023-05-12T05:36:07.846Z,3.25
2023-05-12T05:40:09.899Z,3.40
2023-05-12T05:44:11.542Z,3.60
2023-05-12T05:48:13.446Z,6.87
2023-05-12T05:52:15.937Z,3.55
2023-05-12T05:56:17.829Z,3.25
2023-05-12T06:00:19.612Z,3.37
2023-05-12T06:04:21.341Z,2.92
2023-05-12T06:08:23.082Z,2.83
2023-05-12T06:12:24.784Z,3.35
2023-05-12T06:16:26.473Z,3.40
2023-05-12T06:20:28.281Z,3.85
2023-05-12T06:24:29.968Z,3.65
2023-05-12T06:28:31.646Z,3.90
2023-05-12T06:32:33.416Z,4.25
2023-05-12T06:36:35.020Z,3.92
2023-05-12T06:40:36.700Z,3.83
2023-05-12T06:44:40.596Z,4.10
2023-05-12T06:48:43.608Z,4.50
2023-05-12T06:52:45.506Z,4.62
2023-05-12T06:56:47.217Z,3.85
2023-05-12T07:00:48.923Z,3.87
2023-05-12T07:04:50.589Z,4.30
2023-05-12T07:08:52.218Z,4.00
2023-05-12T07:12:53.879Z,3.60
2023-05-12T07:16:55.514Z,4.12
2023-05-12T07:20:57.277Z,3.33
2023-05-12T07:24:58.910Z,3.75
2023-05-12T07:29:01.208Z,3.15
2023-05-12T07:33:03.064Z,3.60
2023-05-12T07:37:06.241Z,4.12
2023-05-12T07:41:07.980Z,3.62
2023-05-12T07:45:09.857Z,3.33
2023-05-12T07:49:11.722Z,3.05
2023-05-12T07:53:13.447Z,3.10
2023-05-12T07:57:15.175Z,3.08
2023-05-12T08:01:17.073Z,2.70
2023-05-12T08:05:18.923Z,2.70
2023-05-12T08:09:20.701Z,2.72
2023-05-12T08:13:22.372Z,3.05
2023-05-12T08:17:24.818Z,2.40
2023-05-12T08:21:28.685Z,2.50
2023-05-12T08:25:30.627Z,2.60
2023-05-12T08:29:32.387Z,2.30
2023-05-12T08:33:36.021Z,2.42
2023-05-12T08:37:38.067Z,2.10
2023-05-12T08:41:53.054Z,2.70
2023-05-12T08:45:57.564Z,2.35
2023-05-12T08:50:01.817Z,2.60
2023-05-12T08:54:04.202Z,2.33
2023-05-12T08:58:09.646Z,2.58
2023-05-12T09:02:12.958Z,2.17
2023-05-12T09:06:14.863Z,2.60
2023-05-12T09:10:32.988Z,2.25
2023-05-12T09:14:38.965Z,1.85
2023-05-12T09:18:53.322Z,2.00
2023-05-12T09:22:57.997Z,2.20
2023-05-12T09:26:59.741Z,2.33
2023-05-12T09:31:01.477Z,2.30
2023-05-12T09:35:06.318Z,2.12
2023-05-12T09:39:09.436Z,2.10
2023-05-12T09:43:14.412Z,2.17
2023-05-12T09:47:17.534Z,2.22
2023-05-12T09:51:19.261Z,1.73
2023-05-12T09:55:22.789Z,1.83
2023-05-12T09:59:29.185Z,2.10
2023-05-12T10:03:33.397Z,2.10
2023-05-12T10:07:36.085Z,1.90
2023-05-12T10:11:37.965Z,2.10
2023-05-12T10:15:41.040Z,2.10
2023-05-12T10:19:43.571Z,2.12
2023-05-12T10:23:46.574Z,2.00
2023-05-12T10:27:48.799Z,2.17
2023-05-12T10:31:51.065Z,1.75
2023-05-12T10:35:53.108Z,2.22
2023-05-12T10:39:54.794Z,2.17
2023-05-12T10:43:56.615Z,2.20
2023-05-12T10:48:06.890Z,2.10
2023-05-12T10:52:12.779Z,2.25
2023-05-12T10:56:22.986Z,1.90
2023-05-12T11:00:27.005Z,1.90
2023-05-12T11:04:41.151Z,2.37
2023-05-12T11:08:44.282Z,2.22
2023-05-12T11:12:46.286Z,2.20
2023-05-12T11:16:48.026Z,2.12
2023-05-12T11:20:50.713Z,1.83
2023-05-12T11:24:53.135Z,2.10
2023-05-12T11:28:58.661Z,1.87
2023-05-12T11:33:02.060Z,2.05
2023-05-12T11:37:04.877Z,2.10
2023-05-12T11:41:06.577Z,1.80
2023-05-12T11:45:21.509Z,2.28
2023-05-12T11:49:23.510Z,2.10
2023-05-12T11:53:26.087Z,2.03
2023-05-12T11:57:30.072Z,2.10
2023-05-12T12:01:33.568Z,1.85
2023-05-12T12:05:35.381Z,2.12
2023-05-12T12:09:40.726Z,2.10
2023-05-12T12:13:50.252Z,2.20
2023-05-12T12:17:51.924Z,2.15
2023-05-12T12:21:54.548Z,2.47
2023-05-12T12:25:56.182Z,2.50
2023-05-12T12:29:57.849Z,2.28
2023-05-12T12:33:59.572Z,2.47
2023-05-12T12:38:01.238Z,4.53
2023-05-12T12:42:03.063Z,3.00
2023-05-12T12:46:04.824Z,2.58
2023-05-12T12:50:09.843Z,2.08
2023-05-12T12:54:11.697Z,2.72
2023-05-12T12:58:13.332Z,2.65
2023-05-12T13:02:15.090Z,3.30
2023-05-12T13:06:16.766Z,2.65
2023-05-12T13:10:18.402Z,2.55
2023-05-12T13:14:21.339Z,2.37
2023-05-12T13:18:23.002Z,2.37
2023-05-12T13:22:27.379Z,3.10
2023-05-12T13:26:29.025Z,2.95
2023-05-12T13:30:30.788Z,3.45
2023-05-12T13:34:32.581Z,3.33
2023-05-12T13:38:34.230Z,3.20
2023-05-12T13:42:35.951Z,4.00
2023-05-12T13:46:37.746Z,3.72
2023-05-12T13:50:39.409Z,3.60
2023-05-12T13:54:41.366Z,3.95
2023-05-12T13:58:43.258Z,3.92
2023-05-12T14:02:45.369Z,3.40
2023-05-12T14:06:46.996Z,3.67
2023-05-12T14:10:48.634Z,3.12
2023-05-12T14:14:50.475Z,3.20
2023-05-12T14:18:52.196Z,3.60
2023-05-12T14:22:53.941Z,3.40
2023-05-12T14:26:55.707Z,3.22
2023-05-12T14:30:57.373Z,3.20
2023-05-12T14:34:59.009Z,3.55
2023-05-12T14:39:00.925Z,3.50
2023-05-12T14:43:03.254Z,3.28
2023-05-12T14:47:06.898Z,3.35
2023-05-12T14:51:09.851Z,3.10
2023-05-12T14:55:12.205Z,3.20
2023-05-12T14:59:14.079Z,2.50
2023-05-12T15:03:16.312Z,2.80
2023-05-12T15:07:18.076Z,2.50
2023-05-12T15:11:19.808Z,2.28
2023-05-12T15:15:21.735Z,2.28
2023-05-12T15:19:23.578Z,2.53
2023-05-12T15:23:25.302Z,2.05
2023-05-12T15:27:27.250Z,1.40
2023-05-12T15:31:29.986Z,1.77
2023-05-12T15:35:32.602Z,1.98
2023-05-12T15:39:34.325Z,2.00
2023-05-12T15:43:38.782Z,2.15
2023-05-12T15:47:40.758Z,2.00
2023-05-12T15:51:42.554Z,2.78
2023-05-12T15:55:44.202Z,3.22
2023-05-12T15:59:46.672Z,2.85
2023-05-12T16:03:51.007Z,3.30
2023-05-12T16:07:54.584Z,3.15
2023-05-12T16:11:57.293Z,3.40
2023-05-12T16:15:59.007Z,3.55
2023-05-12T16:20:01.821Z,3.30
2023-05-12T16:24:03.689Z,3.35
2023-05-12T16:28:05.465Z,3.47
2023-05-12T16:32:07.383Z,3.33
2023-05-12T16:36:09.107Z,3.30
2023-05-12T16:40:10.957Z,2.80
2023-05-12T16:44:12.646Z,3.33
2023-05-12T16:48:14.372Z,3.10
2023-05-12T16:52:16.029Z,3.22
2023-05-12T16:56:17.706Z,3.33
2023-05-12T17:00:19.612Z,3.40
2023-05-12T17:04:21.336Z,3.28
2023-05-12T17:08:23.100Z,3.33
2023-05-12T17:12:24.782Z,2.95
2023-05-12T17:16:26.714Z,3.12
2023-05-12T17:20:28.627Z,3.10
2023-05-12T17:24:30.341Z,2.85
2023-05-12T17:28:32.262Z,3.30
2023-05-12T17:32:33.942Z,3.08
2023-05-12T17:36:35.818Z,3.20
2023-05-12T17:40:37.466Z,3.17
2023-05-12T17:44:39.103Z,3.45
2023-05-12T17:48:40.921Z,4.12
2023-05-12T17:52:43.456Z,3.78
2023-05-12T17:56:45.189Z,3.92
2023-05-12T18:00:47.152Z,3.92
2023-05-12T18:04:49.285Z,3.90
2023-05-12T18:08:50.906Z,3.65
2023-05-12T18:12:53.682Z,3.50
2023-05-12T18:16:56.463Z,3.53
2023-05-12T18:20:59.424Z,3.40
2023-05-12T18:25:01.092Z,3.70
2023-05-12T18:29:02.752Z,3.80
2023-05-12T18:33:04.733Z,3.92
2023-05-12T18:37:07.037Z,3.85
2023-05-12T18:41:09.073Z,4.10
2023-05-12T18:45:11.207Z,4.62
2023-05-12T18:49:12.947Z,4.40
2023-05-12T18:53:14.761Z,4.40
2023-05-12T18:57:16.831Z,4.82
2023-05-12T19:01:18.670Z,4.93
2023-05-12T19:05:20.581Z,5.28
2023-05-12T19:09:22.482Z,4.47
2023-05-12T19:13:24.116Z,5.15
2023-05-12T19:17:25.833Z,5.40
2023-05-12T19:21:28.070Z,5.00
2023-05-12T19:25:29.753Z,5.50
2023-05-12T19:29:31.456Z,5.40
2023-05-12T19:33:34.798Z,5.85
2023-05-12T19:37:36.597Z,5.43
2023-05-12T19:41:39.295Z,5.62
2023-05-12T19:45:41.121Z,5.62
2023-05-12T19:49:42.865Z,5.95
2023-05-12T19:53:44.659Z,6.18
2023-05-12T19:57:46.381Z,6.00
2023-05-12T20:01:49.187Z,6.60
2023-05-12T20:05:50.919Z,6.82
2023-05-12T20:09:53.021Z,6.50
2023-05-12T20:13:54.784Z,6.90
2023-05-12T20:17:56.625Z,7.28
2023-05-12T20:21:58.588Z,7.37
2023-05-12T20:26:00.246Z,7.80
2023-05-12T20:30:01.963Z,6.93
2023-05-12T20:34:04.130Z,7.85
2023-05-12T20:38:06.945Z,7.80
2023-05-12T20:42:11.745Z,6.55
2023-05-12T20:46:13.457Z,7.47
2023-05-12T20:50:15.630Z,7.60
2023-05-12T20:54:17.281Z,8.20
2023-05-12T20:58:18.943Z,7.75
2023-05-12T21:02:20.728Z,7.62
2023-05-12T21:06:22.552Z,7.57
2023-05-12T21:10:24.263Z,7.50
2023-05-12T21:14:25.905Z,7.18
2023-05-12T21:18:27.672Z,7.37
2023-05-12T21:22:29.389Z,6.72
2023-05-12T21:26:31.090Z,7.75
2023-05-12T21:30:32.810Z,7.50
2023-05-12T21:34:35.749Z,8.88
2023-05-12T21:38:37.514Z,8.00
2023-05-12T21:42:39.317Z,8.10
2023-05-12T21:46:41.019Z,8.15
2023-05-12T21:50:42.765Z,8.35
2023-05-12T21:54:44.668Z,8.27
2023-05-12T21:58:46.622Z,8.35
2023-05-12T22:02:48.283Z,8.13
2023-05-12T22:06:50.476Z,8.32
2023-05-12T22:10:52.159Z,8.52
2023-05-12T22:14:54.277Z,8.75
2023-05-12T22:18:56.000Z,8.50
2023-05-12T22:22:57.772Z,8.45
2023-05-12T22:26:59.448Z,8.82
2023-05-12T22:31:01.207Z,9.63
2023-05-12T22:35:03.022Z,9.48
2023-05-12T22:39:04.721Z,8.60
2023-05-12T22:43:06.754Z,9.70
2023-05-12T22:47:08.519Z,8.70
2023-05-12T22:51:10.367Z,8.82
2023-05-12T22:55:12.123Z,8.85
2023-05-12T22:59:13.846Z,8.95
2023-05-12T23:03:15.708Z,9.27
2023-05-12T23:07:17.365Z,9.25
2023-05-12T23:11:19.035Z,9.20
2023-05-12T23:15:21.096Z,8.98
2023-05-12T23:19:22.726Z,9.65
2023-05-12T23:23:24.433Z,9.02
2023-05-12T23:27:26.846Z,9.77
2023-05-12T23:31:28.556Z,9.50
2023-05-12T23:35:30.277Z,9.90
2023-05-12T23:39:31.917Z,9.90
2023-05-12T23:43:33.626Z,9.80
2023-05-12T23:47:35.361Z,10.05
2023-05-12T23:51:37.023Z,10.57
2023-05-12T23:55:38.723Z,10.30
2023-05-12T23:59:40.633Z,9.88
